createdAt,value
2023-05-23T00:00:22.557Z,18.64
2023-05-23T00:01:25.435Z,18.64
2023-05-23T00:02:29.312Z,18.64
2023-05-23T00:03:31.778Z,18.63
2023-05-23T00:04:36.572Z,18.64
2023-05-23T00:05:39.027Z,18.63
2023-05-23T00:06:45.060Z,18.62
2023-05-23T00:07:47.571Z,18.62
2023-05-23T00:08:50.719Z,18.62
2023-05-23T00:09:53.007Z,18.62
2023-05-23T00:10:55.299Z,18.62
2023-05-23T00:11:58.039Z,18.62
2023-05-23T00:13:00.434Z,18.61
2023-05-23T00:14:02.748Z,18.62
2023-05-23T00:15:08.275Z,18.60
2023-05-23T00:16:10.752Z,18.60
2023-05-23T00:17:13.134Z,18.60
2023-05-23T00:18:16.725Z,18.60
2023-05-23T00:19:19.187Z,18.60
2023-05-23T00:20:22.088Z,18.60
2023-05-23T00:21:24.657Z,18.60
2023-05-23T00:22:26.946Z,18.61
2023-05-23T00:23:30.691Z,18.61
2023-05-23T00:24:33.008Z,18.61
2023-05-23T00:25:36.083Z,18.61
2023-05-23T00:26:39.027Z,18.61
2023-05-23T00:27:41.446Z,18.60
2023-05-23T00:28:43.813Z,18.59
2023-05-23T00:29:48.430Z,18.60
2023-05-23T00:30:50.959Z,18.59
2023-05-23T00:31:53.355Z,18.59
2023-05-23T00:32:56.088Z,18.59
2023-05-23T00:33:58.456Z,18.58
2023-05-23T00:35:00.727Z,18.58
2023-05-23T00:36:03.504Z,18.57
2023-05-23T00:37:05.924Z,18.54
2023-05-23T00:38:08.437Z,18.52
2023-05-23T00:39:19.536Z,18.50
2023-05-23T00:40:23.444Z,18.48
2023-05-23T00:41:27.270Z,18.47
2023-05-23T00:42:29.696Z,18.43
2023-05-23T00:43:32.333Z,18.40
2023-05-23T00:44:34.693Z,18.37
2023-05-23T00:45:37.021Z,18.36
2023-05-23T00:46:41.440Z,18.34
2023-05-23T00:47:45.451Z,18.35
2023-05-23T00:48:47.871Z,18.33
2023-05-23T00:49:50.453Z,18.28
2023-05-23T00:50:54.090Z,18.28
2023-05-23T00:51:56.495Z,18.25
2023-05-23T00:53:01.177Z,18.25
2023-05-23T00:54:05.909Z,18.23
2023-05-23T00:55:09.065Z,18.22
2023-05-23T00:56:12.610Z,18.22
2023-05-23T00:57:15.001Z,18.21
2023-05-23T00:58:18.012Z,18.20
2023-05-23T00:59:22.029Z,18.18
2023-05-23T01:00:27.370Z,18.19
2023-05-23T01:01:30.606Z,18.18
2023-05-23T01:02:36.976Z,18.18
2023-05-23T01:03:39.434Z,18.17
2023-05-23T01:04:42.304Z,18.17
2023-05-23T01:05:45.526Z,18.16
2023-05-23T01:06:49.564Z,18.15
2023-05-23T01:07:52.712Z,18.15
2023-05-23T01:08:55.116Z,18.14
2023-05-23T01:09:57.829Z,18.14
2023-05-23T01:11:06.819Z,18.12
2023-05-23T01:12:33.468Z,18.10
2023-05-23T01:14:05.475Z,18.09
2023-05-23T01:15:18.588Z,18.09
2023-05-23T01:16:36.362Z,18.08
2023-05-23T01:17:51.040Z,18.07
2023-05-23T01:19:03.316Z,18.06
2023-05-23T01:20:12.904Z,18.05
2023-05-23T01:21:18.225Z,18.04
2023-05-23T01:22:56.767Z,18.04
2023-05-23T01:24:14.426Z,18.02
2023-05-23T01:25:37.062Z,18.01
2023-05-23T01:27:06.005Z,18.00
2023-05-23T01:28:12.824Z,17.99
2023-05-23T01:29:29.813Z,17.99
2023-05-23T01:30:35.836Z,17.95
2023-05-23T01:31:44.541Z,17.93
2023-05-23T01:32:49.716Z,17.92
2023-05-23T01:33:53.809Z,17.92
2023-05-23T01:34:57.043Z,17.89
2023-05-23T01:36:03.045Z,17.87
2023-05-23T01:37:10.151Z,17.87
2023-05-23T01:38:12.500Z,17.85
2023-05-23T01:39:15.144Z,17.84
2023-05-23T01:40:17.443Z,17.84
2023-05-23T01:41:19.756Z,17.82
2023-05-23T01:42:22.355Z,17.81
2023-05-23T01:43:25.525Z,17.81
2023-05-23T01:44:28.307Z,17.79
2023-05-23T01:45:31.879Z,17.79
2023-05-23T01:46:36.187Z,17.78
2023-05-23T01:47:41.420Z,17.78
2023-05-23T01:48:45.486Z,17.76
2023-05-23T01:49:48.405Z,17.76
2023-05-23T01:50:51.692Z,17.75
2023-05-23T01:51:54.322Z,17.76
2023-05-23T01:52:57.815Z,17.75
2023-05-23T01:54:00.552Z,17.75
2023-05-23T01:55:09.961Z,17.74
2023-05-23T01:56:14.070Z,17.74
2023-05-23T01:57:16.587Z,17.75
2023-05-23T01:58:19.380Z,17.73
2023-05-23T01:59:21.797Z,17.74
2023-05-23T02:00:24.649Z,17.73
2023-05-23T02:01:27.681Z,17.72
2023-05-23T02:02:30.413Z,17.69
2023-05-23T02:03:33.138Z,17.69
2023-05-23T02:04:36.176Z,17.67
2023-05-23T02:05:38.584Z,17.63
2023-05-23T02:06:41.957Z,17.64
2023-05-23T02:07:48.170Z,17.63
2023-05-23T02:08:52.953Z,17.60
2023-05-23T02:09:56.499Z,17.61
2023-05-23T02:10:58.852Z,17.58
2023-05-23T02:12:01.636Z,17.55
2023-05-23T02:13:04.259Z,17.55
2023-05-23T02:14:07.488Z,17.53
2023-05-23T02:15:10.090Z,17.51
2023-05-23T02:16:14.136Z,17.51
2023-05-23T02:17:17.238Z,17.47
2023-05-23T02:18:21.021Z,17.45
2023-05-23T02:19:27.223Z,17.43
2023-05-23T02:20:29.718Z,17.43
2023-05-23T02:21:34.898Z,17.40
2023-05-23T02:22:39.319Z,17.39
2023-05-23T02:23:41.787Z,17.37
2023-05-23T02:24:44.262Z,17.36
2023-05-23T02:25:48.861Z,17.37
2023-05-23T02:26:51.414Z,17.35
2023-05-23T02:27:54.217Z,17.35
2023-05-23T02:28:57.412Z,17.33
2023-05-23T02:30:00.648Z,17.34
2023-05-23T02:31:03.675Z,17.32
2023-05-23T02:32:06.435Z,17.32
2023-05-23T02:33:08.791Z,17.32
2023-05-23T02:34:11.885Z,17.30
2023-05-23T02:35:14.251Z,17.31
2023-05-23T02:36:16.731Z,17.31
2023-05-23T02:37:19.417Z,17.31
2023-05-23T02:38:21.754Z,17.29
2023-05-23T02:39:24.312Z,17.32
2023-05-23T02:40:26.912Z,17.30
2023-05-23T02:41:32.012Z,17.27
2023-05-23T02:42:34.590Z,17.28
2023-05-23T02:43:38.663Z,17.28
2023-05-23T02:44:41.231Z,17.27
2023-05-23T02:45:43.804Z,17.28
2023-05-23T02:46:46.854Z,17.27
2023-05-23T02:47:49.341Z,17.26
2023-05-23T02:48:51.778Z,17.27
2023-05-23T02:49:54.169Z,17.25
2023-05-23T02:50:56.625Z,17.26
2023-05-23T02:51:58.994Z,17.25
2023-05-23T02:53:01.357Z,17.26
2023-05-23T02:54:03.930Z,17.26
2023-05-23T02:55:11.266Z,17.24
2023-05-23T02:56:19.111Z,17.24
2023-05-23T02:57:21.561Z,17.20
2023-05-23T02:58:24.305Z,17.20
2023-05-23T02:59:27.024Z,17.19
2023-05-23T03:00:29.570Z,17.18
2023-05-23T03:01:33.256Z,17.16
2023-05-23T03:02:35.799Z,17.15
2023-05-23T03:03:38.324Z,17.13
2023-05-23T03:04:41.633Z,17.12
2023-05-23T03:05:44.261Z,17.11
2023-05-23T03:06:48.047Z,17.10
2023-05-23T03:07:52.325Z,17.10
2023-05-23T03:08:54.677Z,17.07
2023-05-23T03:09:57.848Z,17.08
2023-05-23T03:11:00.335Z,17.07
2023-05-23T03:12:02.930Z,17.04
2023-05-23T03:13:06.420Z,17.03
2023-05-23T03:14:08.914Z,17.03
2023-05-23T03:15:12.036Z,17.02
2023-05-23T03:16:17.212Z,17.01
2023-05-23T03:17:19.820Z,16.99
2023-05-23T03:18:22.353Z,16.99
2023-05-23T03:19:26.222Z,16.97
2023-05-23T03:20:28.771Z,16.97
2023-05-23T03:21:33.026Z,16.96
2023-05-23T03:22:36.925Z,16.94
2023-05-23T03:23:39.492Z,16.94
2023-05-23T03:24:42.093Z,16.94
2023-05-23T03:25:45.761Z,16.92
2023-05-23T03:26:48.201Z,16.92
2023-05-23T03:27:50.733Z,16.92
2023-05-23T03:28:53.368Z,16.92
2023-05-23T03:29:55.893Z,16.89
2023-05-23T03:30:59.040Z,16.89
2023-05-23T03:32:01.685Z,16.87
2023-05-23T03:33:04.586Z,16.87
2023-05-23T03:34:07.121Z,16.88
2023-05-23T03:35:10.239Z,16.87
2023-05-23T03:36:13.019Z,16.88
2023-05-23T03:37:15.563Z,16.86
2023-05-23T03:38:18.076Z,16.84
2023-05-23T03:39:20.704Z,16.86
2023-05-23T03:40:23.269Z,16.85
2023-05-23T03:41:26.767Z,16.85
2023-05-23T03:42:31.749Z,16.85
2023-05-23T03:43:35.070Z,16.85
2023-05-23T03:44:37.533Z,16.85
2023-05-23T03:45:42.276Z,16.84
2023-05-23T03:46:48.978Z,16.83
2023-05-23T03:47:53.020Z,16.84
2023-05-23T03:48:55.546Z,16.83
2023-05-23T03:49:59.121Z,16.83
2023-05-23T03:51:03.382Z,16.84
2023-05-23T03:52:07.132Z,16.84
2023-05-23T03:53:10.301Z,16.85
2023-05-23T03:54:13.303Z,16.85
2023-05-23T03:55:16.684Z,16.85
2023-05-23T03:56:20.333Z,16.86
2023-05-23T03:57:23.290Z,16.85
2023-05-23T03:58:26.664Z,16.87
2023-05-23T03:59:34.708Z,16.86
2023-05-23T04:00:38.744Z,16.86
2023-05-23T04:01:43.300Z,16.87
2023-05-23T04:02:47.123Z,16.87
2023-05-23T04:03:53.203Z,16.87
2023-05-23T04:04:57.442Z,16.88
2023-05-23T04:06:01.596Z,16.88
2023-05-23T04:07:06.074Z,16.89
2023-05-23T04:08:08.922Z,16.88
2023-05-23T04:09:11.476Z,16.89
2023-05-23T04:10:17.623Z,16.90
2023-05-23T04:11:22.527Z,16.91
2023-05-23T04:12:25.865Z,16.90
2023-05-23T04:13:28.848Z,16.91
2023-05-23T04:14:33.950Z,16.90
2023-05-23T04:15:36.592Z,16.91
2023-05-23T04:16:42.782Z,16.92
2023-05-23T04:17:45.777Z,16.93
2023-05-23T04:18:48.717Z,16.93
2023-05-23T04:19:52.270Z,16.94
2023-05-23T04:20:54.932Z,16.93
2023-05-23T04:21:57.245Z,16.93
2023-05-23T04:22:59.761Z,16.94
2023-05-23T04:24:04.322Z,16.95
2023-05-23T04:25:07.123Z,16.96
2023-05-23T04:26:14.292Z,16.96
2023-05-23T04:27:26.213Z,16.96
2023-05-23T04:28:29.451Z,16.99
2023-05-23T04:29:34.739Z,16.98
2023-05-23T04:30:37.163Z,16.98
2023-05-23T04:31:40.077Z,17.00
2023-05-23T04:32:42.468Z,17.01
2023-05-23T04:33:46.090Z,17.02
2023-05-23T04:34:48.859Z,17.03
2023-05-23T04:35:51.524Z,17.04
2023-05-23T04:36:54.824Z,17.05
2023-05-23T04:37:58.279Z,17.06
2023-05-23T04:39:02.643Z,17.06
2023-05-23T04:40:09.324Z,17.07
2023-05-23T04:41:38.965Z,17.08
2023-05-23T04:43:09.616Z,17.10
2023-05-23T04:44:30.569Z,17.10
2023-05-23T04:45:51.842Z,17.12
2023-05-23T04:47:11.914Z,17.13
2023-05-23T04:48:36.001Z,17.14
2023-05-23T04:49:38.371Z,17.15
2023-05-23T04:50:41.047Z,17.15
2023-05-23T04:51:43.634Z,17.15
2023-05-23T04:52:52.686Z,17.16
2023-05-23T04:53:56.550Z,17.16
2023-05-23T04:54:59.180Z,17.16
2023-05-23T04:56:01.528Z,17.16
2023-05-23T04:57:05.254Z,17.16
2023-05-23T04:58:08.838Z,17.17
2023-05-23T04:59:11.771Z,17.18
2023-05-23T05:00:15.103Z,17.18
2023-05-23T05:01:17.519Z,17.18
2023-05-23T05:02:20.088Z,17.20
2023-05-23T05:03:25.228Z,17.21
2023-05-23T05:04:28.208Z,17.24
2023-05-23T05:05:30.881Z,17.23
2023-05-23T05:06:33.672Z,17.25
2023-05-23T05:07:36.007Z,17.25
2023-05-23T05:08:41.093Z,17.27
2023-05-23T05:09:44.335Z,17.27
2023-05-23T05:10:47.540Z,17.27
2023-05-23T05:11:51.655Z,17.28
2023-05-23T05:12:55.251Z,17.30
2023-05-23T05:13:58.158Z,17.32
2023-05-23T05:15:00.465Z,17.33
2023-05-23T05:16:04.053Z,17.34
2023-05-23T05:17:06.494Z,17.35
2023-05-23T05:18:17.066Z,17.36
2023-05-23T05:19:21.950Z,17.37
2023-05-23T05:20:24.722Z,17.39
2023-05-23T05:21:27.140Z,17.40
2023-05-23T05:22:30.224Z,17.42
2023-05-23T05:23:33.576Z,17.44
2023-05-23T05:24:36.064Z,17.46
2023-05-23T05:25:38.616Z,17.47
2023-05-23T05:26:40.990Z,17.48
2023-05-23T05:27:43.973Z,17.49
2023-05-23T05:28:48.640Z,17.51
2023-05-23T05:29:52.070Z,17.53
2023-05-23T05:30:54.683Z,17.55
2023-05-23T05:31:58.337Z,17.58
2023-05-23T05:33:04.782Z,17.59
2023-05-23T05:34:08.035Z,17.61
2023-05-23T05:35:10.500Z,17.63
2023-05-23T05:36:12.873Z,17.65
2023-05-23T05:37:18.892Z,17.67
2023-05-23T05:38:21.299Z,17.69
2023-05-23T05:39:24.932Z,17.72
2023-05-23T05:40:27.260Z,17.74
2023-05-23T05:41:30.621Z,17.75
2023-05-23T05:42:33.428Z,17.79
2023-05-23T05:43:36.095Z,17.82
2023-05-23T05:44:38.742Z,17.85
2023-05-23T05:45:41.108Z,17.87
2023-05-23T05:46:43.734Z,17.90
2023-05-23T05:47:48.374Z,17.94
2023-05-23T05:48:50.766Z,17.97
2023-05-23T05:49:54.085Z,18.00
2023-05-23T05:50:56.557Z,18.05
2023-05-23T05:51:58.922Z,18.07
2023-05-23T05:53:01.274Z,18.11
2023-05-23T05:54:04.007Z,18.14
2023-05-23T05:55:13.608Z,18.20
2023-05-23T05:56:21.060Z,18.26
2023-05-23T05:57:23.891Z,18.34
2023-05-23T05:58:26.256Z,18.38
2023-05-23T05:59:41.453Z,18.46
2023-05-23T06:00:44.469Z,18.51
2023-05-23T06:01:46.821Z,18.59
2023-05-23T06:02:51.855Z,18.64
2023-05-23T06:04:17.868Z,18.72
2023-05-23T06:05:20.794Z,18.78
2023-05-23T06:06:23.583Z,18.81
2023-05-23T06:07:26.641Z,18.86
2023-05-23T06:08:29.000Z,18.91
2023-05-23T06:09:31.388Z,18.96
2023-05-23T06:10:34.097Z,18.99
2023-05-23T06:11:41.113Z,19.03
2023-05-23T06:12:43.782Z,19.07
2023-05-23T06:13:46.417Z,19.09
2023-05-23T06:14:48.731Z,19.11
2023-05-23T06:15:52.373Z,19.15
2023-05-23T06:16:55.032Z,19.18
2023-05-23T06:17:57.478Z,19.20
2023-05-23T06:19:00.452Z,19.23
2023-05-23T06:20:05.343Z,19.25
2023-05-23T06:21:09.608Z,19.29
2023-05-23T06:22:12.455Z,19.30
2023-05-23T06:23:14.839Z,19.32
2023-05-23T06:24:17.244Z,19.33
2023-05-23T06:25:19.741Z,19.34
2023-05-23T06:26:22.985Z,19.34
2023-05-23T06:27:27.661Z,19.35
2023-05-23T06:28:30.031Z,19.36
2023-05-23T06:29:32.326Z,19.36
2023-05-23T06:30:37.662Z,19.37
2023-05-23T06:31:40.168Z,19.38
2023-05-23T06:32:42.716Z,19.39
2023-05-23T06:33:45.046Z,19.40
2023-05-23T06:34:47.346Z,19.40
2023-05-23T06:35:50.931Z,19.40
2023-05-23T06:36:53.649Z,19.39
2023-05-23T06:37:56.183Z,19.40
2023-05-23T06:38:58.516Z,19.41
2023-05-23T06:40:01.751Z,19.41
2023-05-23T06:41:07.428Z,19.40
2023-05-23T06:42:11.628Z,19.42
2023-05-23T06:43:40.340Z,19.41
2023-05-23T06:44:58.776Z,19.41
2023-05-23T06:46:01.222Z,19.43
2023-05-23T06:47:04.529Z,19.43
2023-05-23T06:48:07.230Z,19.43
2023-05-23T06:49:15.022Z,19.43
2023-05-23T06:50:20.233Z,19.45
2023-05-23T06:51:24.362Z,19.46
2023-05-23T06:52:27.300Z,19.48
2023-05-23T06:53:29.725Z,19.50
2023-05-23T06:54:32.158Z,19.51
2023-05-23T06:55:34.927Z,19.53
2023-05-23T06:56:37.247Z,19.56
2023-05-23T06:57:40.652Z,19.59
2023-05-23T06:58:45.195Z,19.62
2023-05-23T06:59:49.469Z,19.64
2023-05-23T07:00:51.849Z,19.68
2023-05-23T07:02:01.017Z,19.71
2023-05-23T07:03:04.957Z,19.75
2023-05-23T07:04:09.130Z,19.79
2023-05-23T07:05:11.656Z,19.84
2023-05-23T07:06:22.333Z,19.89
2023-05-23T07:07:26.121Z,19.91
2023-05-23T07:08:28.609Z,19.96
2023-05-23T07:09:34.567Z,20.00
2023-05-23T07:10:49.172Z,20.01
2023-05-23T07:12:11.711Z,20.04
2023-05-23T07:13:17.002Z,20.08
2023-05-23T07:14:20.503Z,20.10
2023-05-23T07:15:22.881Z,20.14
2023-05-23T07:16:36.340Z,20.16
2023-05-23T07:17:42.142Z,20.19
2023-05-23T07:18:44.961Z,20.21
2023-05-23T07:19:47.265Z,20.23
2023-05-23T07:20:50.322Z,20.28
2023-05-23T07:21:55.291Z,20.30
2023-05-23T07:22:58.057Z,20.32
2023-05-23T07:24:00.779Z,20.35
2023-05-23T07:25:04.473Z,20.38
2023-05-23T07:26:10.062Z,20.40
2023-05-23T07:27:19.715Z,20.41
2023-05-23T07:28:22.509Z,20.44
2023-05-23T07:29:25.053Z,20.47
2023-05-23T07:30:28.668Z,20.51
2023-05-23T07:31:31.599Z,20.54
2023-05-23T07:32:35.086Z,20.59
2023-05-23T07:33:37.863Z,20.65
2023-05-23T07:34:41.468Z,20.72
2023-05-23T07:35:45.018Z,20.78
2023-05-23T07:36:47.921Z,20.84
2023-05-23T07:37:51.225Z,20.92
2023-05-23T07:38:53.763Z,21.00
2023-05-23T07:39:56.156Z,21.08
2023-05-23T07:41:10.086Z,21.18
2023-05-23T07:42:14.227Z,21.29
2023-05-23T07:43:16.690Z,21.39
2023-05-23T07:44:20.729Z,21.48
2023-05-23T07:45:24.833Z,21.59
2023-05-23T07:46:27.325Z,21.67
2023-05-23T07:47:29.787Z,21.75
2023-05-23T07:48:34.227Z,21.85
2023-05-23T07:49:37.230Z,21.95
2023-05-23T07:50:41.076Z,22.04
2023-05-23T07:51:44.860Z,22.15
2023-05-23T07:52:47.289Z,22.25
2023-05-23T07:53:52.275Z,22.35
2023-05-23T07:54:57.308Z,22.48
2023-05-23T07:55:59.596Z,22.59
2023-05-23T07:57:07.582Z,22.69
2023-05-23T07:58:11.795Z,22.80
2023-05-23T07:59:14.202Z,22.91
2023-05-23T08:00:18.583Z,23.03
2023-05-23T08:01:27.466Z,23.12
2023-05-23T08:02:37.411Z,23.23
2023-05-23T08:03:39.864Z,23.32
2023-05-23T08:04:49.100Z,23.42
2023-05-23T08:05:51.805Z,23.49
2023-05-23T08:08:03.697Z,23.60
2023-05-23T08:09:07.097Z,23.62
2023-05-23T08:10:13.716Z,23.66
2023-05-23T08:11:16.210Z,23.69
2023-05-23T08:12:22.397Z,23.69
2023-05-23T08:13:31.550Z,23.72
2023-05-23T08:15:00.143Z,23.75
2023-05-23T08:16:10.395Z,23.76
2023-05-23T08:17:13.635Z,23.76
2023-05-23T08:18:18.390Z,23.77
2023-05-23T08:19:20.960Z,23.78
2023-05-23T08:20:31.057Z,23.80
2023-05-23T08:21:36.596Z,23.81
2023-05-23T08:22:39.001Z,23.85
2023-05-23T08:23:41.803Z,23.85
2023-05-23T08:24:45.982Z,23.87
2023-05-23T08:25:48.782Z,23.90
2023-05-23T08:26:51.431Z,23.93
2023-05-23T08:27:54.226Z,23.95
2023-05-23T08:29:12.820Z,23.99
2023-05-23T08:30:16.804Z,24.03
2023-05-23T08:31:19.863Z,24.04
2023-05-23T08:32:22.449Z,24.08
2023-05-23T08:33:26.107Z,24.10
2023-05-23T08:34:34.200Z,24.14
2023-05-23T08:35:37.366Z,24.16
2023-05-23T08:36:43.529Z,24.19
2023-05-23T08:37:51.099Z,24.18
2023-05-23T08:38:57.691Z,24.20
2023-05-23T08:40:05.266Z,24.21
2023-05-23T08:41:31.309Z,24.23
2023-05-23T08:42:40.934Z,24.25
2023-05-23T08:43:45.104Z,24.25
2023-05-23T08:44:52.071Z,24.24
2023-05-23T08:45:55.640Z,24.23
2023-05-23T08:47:02.712Z,24.21
2023-05-23T08:48:20.512Z,24.21
2023-05-23T08:49:26.182Z,24.20
2023-05-23T08:50:30.818Z,24.18
2023-05-23T08:51:37.986Z,24.16
2023-05-23T08:52:56.251Z,24.15
2023-05-23T08:53:59.995Z,24.14
2023-05-23T08:55:06.291Z,24.11
2023-05-23T08:56:10.621Z,24.11
2023-05-23T08:57:18.229Z,24.09
2023-05-23T08:58:29.532Z,24.08
2023-05-23T08:59:35.449Z,24.03
2023-05-23T09:00:38.039Z,24.00
2023-05-23T09:01:42.152Z,23.95
2023-05-23T09:02:47.039Z,23.90
2023-05-23T09:04:07.403Z,23.81
2023-05-23T09:05:15.730Z,23.77
2023-05-23T09:06:21.641Z,23.74
2023-05-23T09:07:24.243Z,23.70
2023-05-23T09:08:28.792Z,23.65
2023-05-23T09:09:34.211Z,23.56
2023-05-23T09:10:38.290Z,23.52
2023-05-23T09:11:46.220Z,23.48
2023-05-23T09:12:50.083Z,23.41
2023-05-23T09:13:53.125Z,23.36
2023-05-23T09:15:00.119Z,23.27
2023-05-23T09:16:04.350Z,23.21
2023-05-23T09:17:16.993Z,23.16
2023-05-23T09:18:19.334Z,23.10
2023-05-23T09:19:22.011Z,23.02
2023-05-23T09:20:33.644Z,22.98
2023-05-23T09:21:44.048Z,22.92
2023-05-23T09:22:52.021Z,22.86
2023-05-23T09:23:55.261Z,22.81
2023-05-23T09:24:58.973Z,22.75
2023-05-23T09:26:06.761Z,22.70
2023-05-23T09:27:09.260Z,22.65
2023-05-23T09:28:11.906Z,22.62
2023-05-23T09:29:15.118Z,22.58
2023-05-23T09:30:19.343Z,22.53
2023-05-23T09:31:27.097Z,22.46
2023-05-23T09:32:29.647Z,22.41
2023-05-23T09:33:49.619Z,22.36
2023-05-23T09:35:03.873Z,22.30
2023-05-23T09:36:07.654Z,22.24
2023-05-23T09:37:13.671Z,22.19
2023-05-23T09:38:16.759Z,22.15
2023-05-23T09:39:19.534Z,22.11
2023-05-23T09:40:23.093Z,22.07
2023-05-23T09:41:34.672Z,22.01
2023-05-23T09:42:43.848Z,21.96
2023-05-23T09:43:54.355Z,21.92
2023-05-23T09:44:56.874Z,21.86
2023-05-23T09:46:17.383Z,21.80
2023-05-23T09:47:19.834Z,21.77
2023-05-23T09:48:31.011Z,21.73
2023-05-23T09:49:33.702Z,21.70
2023-05-23T09:50:36.285Z,21.66
2023-05-23T09:51:40.363Z,21.62
2023-05-23T09:52:43.030Z,21.59
2023-05-23T09:53:45.567Z,21.57
2023-05-23T09:54:48.071Z,21.54
2023-05-23T09:55:52.002Z,21.53
2023-05-23T09:56:57.596Z,21.49
2023-05-23T09:58:01.602Z,21.46
2023-05-23T09:59:07.829Z,21.44
2023-05-23T10:00:12.588Z,21.40
2023-05-23T10:01:19.963Z,21.38
2023-05-23T10:02:42.841Z,21.35
2023-05-23T10:03:50.612Z,21.33
2023-05-23T10:04:54.427Z,21.31
2023-05-23T10:06:17.931Z,21.27
2023-05-23T10:07:22.694Z,21.23
2023-05-23T10:08:32.599Z,21.21
2023-05-23T10:09:38.358Z,21.16
2023-05-23T10:10:58.965Z,21.13
2023-05-23T10:12:13.386Z,21.10
2023-05-23T10:13:16.258Z,21.08
2023-05-23T10:14:19.802Z,21.05
2023-05-23T10:15:24.211Z,21.02
2023-05-23T10:16:48.490Z,20.98
2023-05-23T10:18:06.269Z,20.94
2023-05-23T10:19:24.445Z,20.91
2023-05-23T10:20:34.373Z,20.88
2023-05-23T10:21:46.638Z,20.87
2023-05-23T10:22:50.449Z,20.85
2023-05-23T10:23:53.411Z,20.81
2023-05-23T10:24:55.875Z,20.82
2023-05-23T10:25:58.300Z,20.82
2023-05-23T10:27:01.080Z,20.82
2023-05-23T10:28:05.468Z,20.82
2023-05-23T10:29:07.873Z,20.80
2023-05-23T10:30:10.834Z,20.80
2023-05-23T10:31:13.344Z,20.79
2023-05-23T10:32:16.806Z,20.78
2023-05-23T10:33:20.069Z,20.77
2023-05-23T10:34:28.872Z,20.75
2023-05-23T10:36:10.380Z,20.78
2023-05-23T10:37:26.589Z,20.74
2023-05-23T10:38:40.465Z,20.73
2023-05-23T10:40:11.895Z,20.73
2023-05-23T10:41:23.436Z,20.72
2023-05-23T10:42:45.576Z,20.71
2023-05-23T10:44:13.301Z,20.69
2023-05-23T10:45:20.616Z,20.69
2023-05-23T10:46:23.237Z,20.68
2023-05-23T10:47:31.539Z,20.65
2023-05-23T10:48:36.441Z,20.62
2023-05-23T10:49:44.083Z,20.62
2023-05-23T10:50:47.027Z,20.61
2023-05-23T10:51:54.974Z,20.63
2023-05-23T10:52:57.300Z,20.59
2023-05-23T10:53:59.847Z,20.59
2023-05-23T10:55:02.257Z,20.59
2023-05-23T10:56:19.606Z,20.60
2023-05-23T10:57:28.184Z,20.61
2023-05-23T10:58:32.260Z,20.61
2023-05-23T10:59:37.065Z,20.62
2023-05-23T11:00:39.922Z,20.63
2023-05-23T11:01:42.805Z,20.65
2023-05-23T11:02:57.401Z,20.67
2023-05-23T11:04:05.776Z,20.68
2023-05-23T11:05:33.014Z,20.71
2023-05-23T11:06:43.652Z,20.73
2023-05-23T11:07:46.361Z,20.75
2023-05-23T11:08:49.207Z,20.79
2023-05-23T11:10:10.643Z,20.81
2023-05-23T11:11:13.082Z,20.84
2023-05-23T11:12:15.501Z,20.87
2023-05-23T11:13:18.194Z,20.90
2023-05-23T11:14:46.402Z,20.92
2023-05-23T11:15:50.788Z,20.94
2023-05-23T11:16:53.521Z,20.97
2023-05-23T11:17:57.959Z,20.98
2023-05-23T11:19:18.763Z,20.99
2023-05-23T11:20:23.711Z,21.01
2023-05-23T11:21:26.235Z,21.03
2023-05-23T11:22:32.149Z,21.04
2023-05-23T11:23:44.038Z,21.07
2023-05-23T11:24:57.408Z,21.08
2023-05-23T11:25:59.722Z,21.10
2023-05-23T11:27:02.064Z,21.12
2023-05-23T11:28:05.302Z,21.14
2023-05-23T11:29:10.297Z,21.15
2023-05-23T11:30:14.994Z,21.18
2023-05-23T11:31:17.706Z,21.19
2023-05-23T11:32:20.139Z,21.22
2023-05-23T11:33:22.485Z,21.23
2023-05-23T11:34:28.469Z,21.26
2023-05-23T11:35:31.262Z,21.26
2023-05-23T11:36:34.032Z,21.27
2023-05-23T11:37:38.579Z,21.28
2023-05-23T11:38:41.144Z,21.30
2023-05-23T11:39:46.756Z,21.29
2023-05-23T11:40:49.119Z,21.29
2023-05-23T11:42:04.315Z,21.29
2023-05-23T11:43:11.690Z,21.30
2023-05-23T11:44:14.373Z,21.32
2023-05-23T11:45:16.718Z,21.32
2023-05-23T11:46:19.483Z,21.33
2023-05-23T11:47:22.230Z,21.32
2023-05-23T11:48:24.650Z,21.32
2023-05-23T11:49:29.145Z,21.32
2023-05-23T11:50:31.463Z,21.31
2023-05-23T11:51:33.857Z,21.31
2023-05-23T11:52:36.318Z,21.31
2023-05-23T11:53:39.030Z,21.30
2023-05-23T11:54:43.234Z,21.29
2023-05-23T11:55:49.764Z,21.28
2023-05-23T11:56:52.626Z,21.28
2023-05-23T11:57:56.811Z,21.27
2023-05-23T11:58:59.177Z,21.28
2023-05-23T12:00:01.548Z,21.27
2023-05-23T12:01:06.894Z,21.27
2023-05-23T12:02:09.301Z,21.27
2023-05-23T12:03:12.131Z,21.27
2023-05-23T12:04:14.639Z,21.26
2023-05-23T12:05:17.265Z,21.27
2023-05-23T12:06:20.532Z,21.25
2023-05-23T12:07:22.909Z,21.26
2023-05-23T12:08:25.798Z,21.28
2023-05-23T12:09:28.164Z,21.28
2023-05-23T12:10:30.623Z,21.29
2023-05-23T12:11:33.470Z,21.29
2023-05-23T12:12:35.953Z,21.29
2023-05-23T12:13:41.728Z,21.29
2023-05-23T12:14:46.741Z,21.31
2023-05-23T12:15:49.596Z,21.30
2023-05-23T12:16:55.153Z,21.30
2023-05-23T12:17:58.369Z,21.30
2023-05-23T12:19:05.351Z,21.29
2023-05-23T12:20:08.700Z,21.29
2023-05-23T12:21:12.179Z,21.28
2023-05-23T12:22:14.840Z,21.27
2023-05-23T12:23:23.846Z,21.26
2023-05-23T12:24:26.219Z,21.23
2023-05-23T12:25:28.705Z,21.20
2023-05-23T12:26:31.179Z,21.18
2023-05-23T12:27:35.942Z,21.14
2023-05-23T12:28:40.615Z,21.11
2023-05-23T12:29:43.034Z,21.06
2023-05-23T12:30:45.337Z,21.02
2023-05-23T12:31:54.613Z,21.00
2023-05-23T12:32:57.061Z,20.95
2023-05-23T12:33:59.939Z,20.89
2023-05-23T12:35:02.476Z,20.85
2023-05-23T12:36:05.131Z,20.81
2023-05-23T12:37:19.061Z,20.77
2023-05-23T12:38:23.878Z,20.72
2023-05-23T12:39:28.343Z,20.71
2023-05-23T12:40:31.051Z,20.66
2023-05-23T12:41:34.380Z,20.63
2023-05-23T12:42:54.195Z,20.59
2023-05-23T12:43:57.208Z,20.56
2023-05-23T12:45:00.446Z,20.54
2023-05-23T12:46:03.193Z,20.50
2023-05-23T12:47:05.841Z,20.48
2023-05-23T12:48:08.979Z,20.46
2023-05-23T12:49:11.392Z,20.44
2023-05-23T12:50:13.788Z,20.42
2023-05-23T12:51:16.850Z,20.40
2023-05-23T12:52:19.263Z,20.38
2023-05-23T12:53:22.509Z,20.36
2023-05-23T12:54:26.483Z,20.36
2023-05-23T12:55:28.874Z,20.34
2023-05-23T12:56:31.715Z,20.35
2023-05-23T12:57:35.743Z,20.32
2023-05-23T12:58:38.118Z,20.30
2023-05-23T12:59:40.414Z,20.29
2023-05-23T13:00:42.774Z,20.28
2023-05-23T13:01:45.223Z,20.26
2023-05-23T13:02:47.678Z,20.23
2023-05-23T13:03:50.247Z,20.24
2023-05-23T13:04:52.589Z,20.21
2023-05-23T13:05:55.024Z,20.20
2023-05-23T13:06:57.680Z,20.18
2023-05-23T13:08:00.404Z,20.16
2023-05-23T13:09:02.904Z,20.14
2023-05-23T13:10:06.967Z,20.13
2023-05-23T13:11:09.460Z,20.10
2023-05-23T13:12:12.673Z,20.07
2023-05-23T13:13:15.499Z,20.03
2023-05-23T13:14:17.973Z,19.99
2023-05-23T13:15:20.440Z,19.98
2023-05-23T13:16:22.897Z,19.95
2023-05-23T13:17:25.314Z,19.90
2023-05-23T13:18:27.626Z,19.86
2023-05-23T13:19:30.126Z,19.83
2023-05-23T13:20:32.536Z,19.80
2023-05-23T13:21:34.963Z,19.74
2023-05-23T13:22:37.350Z,19.71
2023-05-23T13:23:39.739Z,19.69
2023-05-23T13:24:43.884Z,19.66
2023-05-23T13:25:46.466Z,19.64
2023-05-23T13:26:48.866Z,19.62
2023-05-23T13:27:51.246Z,19.59
2023-05-23T13:28:53.769Z,19.57
2023-05-23T13:29:56.127Z,19.56
2023-05-23T13:30:58.624Z,19.53
2023-05-23T13:32:01.059Z,19.53
2023-05-23T13:33:03.595Z,19.53
2023-05-23T13:34:06.330Z,19.52
2023-05-23T13:35:08.997Z,19.51
2023-05-23T13:36:11.330Z,19.52
2023-05-23T13:37:14.875Z,19.51
2023-05-23T13:38:21.094Z,19.51
2023-05-23T13:39:23.813Z,19.51
2023-05-23T13:40:26.217Z,19.50
2023-05-23T13:41:28.618Z,19.49
2023-05-23T13:42:31.129Z,19.48
2023-05-23T13:43:33.501Z,19.46
2023-05-23T13:44:36.414Z,19.47
2023-05-23T13:45:38.892Z,19.47
2023-05-23T13:46:41.516Z,19.45
2023-05-23T13:47:44.733Z,19.44
2023-05-23T13:48:47.533Z,19.42
2023-05-23T13:49:50.475Z,19.43
2023-05-23T13:50:52.936Z,19.42
2023-05-23T13:51:55.548Z,19.41
2023-05-23T13:52:57.909Z,19.41
2023-05-23T13:54:00.255Z,19.39
2023-05-23T13:55:04.804Z,19.38
2023-05-23T13:56:07.426Z,19.36
2023-05-23T13:57:09.811Z,19.36
2023-05-23T13:58:13.854Z,19.35
2023-05-23T13:59:21.267Z,19.34